Nearby METAR Reports

 

KSJC - San Jose, California, USA
Distance from station: NE 14km
Updated: 2020-09-23 05:53
Clear
Clear
 Wind from calm
Wind: Calm
Temperature: 15°C
Dew Point: 11°C
Humidity: 77%
Barometer: 1018.3 hPa
Clouds: Clear
Visibility: 16 km
2020/09/23 10:53 KSJC 231053Z AUTO 00000KT 10SM CLR 15/11 A3007 RMK AO2 SLP181 T01500111
KNUQ - Moffett Nas/Mtn, California, USA
Distance from station: N 14km
Updated: 2020-09-23 06:30
Clear
Clear
 Wind from calm
Wind: Calm
Temperature: 15°C
Dew Point: 11°C
Humidity: 77%
Barometer: 1018.3 hPa
Clouds: Clear
Visibility: 16 km
2020/09/23 11:30 KNUQ 231130Z AUTO 00000KT 10SM CLR 15/11 A3007 RMK AO2
 
KPAO - Palo Alto, California, USA
Distance from station: NNW 23km
Updated: 2020-09-22 20:47
NOT Current
Partly cloudy
Partly cloudy
 Wind from NNW
Wind: NNW 15 km/h
Temperature: 21°C
Dew Point: 12°C
Humidity: 57%
Barometer: 1017.3 hPa
Clouds: Partly cloudy
Visibility: 16 km
Cloud details: Partly cloudy 3658 m
2020/09/23 01:47 KPAO 230147Z 34008KT 10SM SCT120 21/12 A3004 RMK LAST
KRHV - San Jose/Reid, California, USA
Distance from station: ENE 19km
Updated: 2020-09-22 23:55
NOT Current
Clear
Clear
 Wind from NW
Wind: NW 11 km/h
Temperature: 17°C
Dew Point: 13°C
Humidity: 77%
Barometer: 1019 hPa
Clouds: Clear
Visibility: 16 km
2020/09/23 04:55 KRHV 230455Z 31006KT 10SM SKC 17/13 A3009 RMK LAST
 
KOAK - Oakland, California, USA
Distance from station: NNW 50km
Updated: 2020-09-23 05:53
Few Clouds
Few Clouds
 Wind from NE
Wind: NE 6 km/h
Temperature: 15°C
Dew Point: 12°C
Humidity: 82%
Barometer: 1018.3 hPa
Clouds: Few Clouds
Visibility: 16 km
Cloud details: Few Clouds 6096 m
2020/09/23 10:53 KOAK 231053Z 05003KT 10SM FEW200 15/12 A3007 RMK AO2 SLP181 T01500122
KSQL - San Carlos Airpo, California, USA
Distance from station: NW 34km
Updated: 2020-09-23 06:35
Clear
Clear
 Wind from NW
Wind: NW 9 km/h
Temperature: 15°C
Dew Point: 9°C
Humidity: 68%
Barometer: 1018.6 hPa
Clouds: Clear
Visibility: 16 km
2020/09/23 11:35 KSQL 231135Z AUTO 32005KT 10SM CLR 15/09 A3008 RMK AO2
 
KSFO - San Francisco, California, USA
Distance from station: NW 49km
Updated: 2020-09-23 05:56
Clear
Clear
 Wind from NNW
Wind: NNW 11 km/h
Temperature: 16°C
Dew Point: 12°C
Humidity: 77%
Barometer: 1017.9 hPa
Clouds: Clear
Visibility: 16 km
2020/09/23 10:56 KSFO 231056Z 33006KT 10SM CLR 16/12 A3006 RMK AO2 SLP179 T01610117
KE16 - San Martin, California, USA
Distance from station: ESE 43km
Updated: 2020-09-23 06:30

 Wind from calm
Wind: Calm
Temperature: 12°C
Dew Point: 9°C
Humidity: 82%
Barometer: 1019 hPa
Visibility: 16 km
2020/09/23 11:30 KE16 231130Z AUTO 00000KT 10SM 12/09 A3009 RMK AO2 PWINO PNO
 
KWVI - Watsonville, California, USA
Distance from station: SSE 44km
Updated: 2020-09-23 05:53
Clear
Clear
 Wind from NNW
Wind: NNW 6 km/h
Temperature: 12°C
Dew Point: 11°C
Humidity: 94%
Barometer: 1017.9 hPa
Clouds: Clear
Visibility: 16 km
2020/09/23 10:53 KWVI 231053Z AUTO 34003KT 10SM CLR 12/11 A3006 RMK AO2 SLP178 T01220111
KHAF - Half Moon Bay, California, USA
Distance from station: WNW 50km
Updated: 2020-09-23 06:35
Clear
Clear
 Wind from SSE
Wind: SSE 7 km/h
Temperature: 10°C
Wind Chill: 9°C
Dew Point: 9°C
Humidity: 94%
Barometer: 1019 hPa
Clouds: Clear
Visibility: 16 km
2020/09/23 11:35 KHAF 231135Z AUTO 15004KT 10SM CLR 10/09 A3009 RMK AO2
 
KHWD - Hayward, California, USA
Distance from station: N 44km
Updated: 2020-09-23 05:54
Clear
Clear
 Wind from ENE
Wind: ENE 7 km/h
Temperature: 16°C
Dew Point: 12°C
Humidity: 77%
Barometer: 1017.9 hPa
Clouds: Clear
Visibility: 16 km
2020/09/23 10:54 KHWD 231054Z AUTO 07004KT 10SM CLR 16/12 A3006 RMK AO2 SLP189 T01610117
KLVK - Livermore, California, USA
Distance from station: NNE 51km
Updated: 2020-09-23 05:53
Clear
Clear
 Wind from calm
Wind: Calm
Temperature: 15°C
Dew Point: 11°C
Humidity: 77%
Barometer: 1017.9 hPa
Clouds: Clear
Visibility: 16 km
2020/09/23 10:53 KLVK 231053Z AUTO 00000KT 10SM CLR 15/11 A3006 RMK AO2 SLP175 T01500106